createdAt,value
2019-03-20T00:00:01.811Z,8.40
2019-03-20T00:01:08.026Z,8.10
2019-03-20T00:02:12.816Z,8.30
2019-03-20T00:03:18.320Z,8.60
2019-03-20T00:04:23.829Z,8.40
2019-03-20T00:05:29.328Z,8.60
2019-03-20T00:06:34.837Z,8.80
2019-03-20T00:07:40.341Z,8.70
2019-03-20T00:08:45.843Z,9.10
2019-03-20T00:09:51.359Z,9.00
2019-03-20T00:10:56.866Z,8.60
2019-03-20T00:12:02.380Z,8.40
2019-03-20T00:13:07.871Z,9.20
2019-03-20T00:14:13.380Z,8.50
2019-03-20T00:15:18.884Z,9.00
2019-03-20T00:16:24.398Z,8.60
2019-03-20T00:17:29.904Z,8.10
2019-03-20T00:18:35.410Z,8.80
2019-03-20T00:19:40.911Z,9.20
2019-03-20T00:20:46.416Z,9.50
2019-03-20T00:21:51.928Z,9.60
2019-03-20T00:22:57.436Z,9.70
2019-03-20T00:24:02.933Z,9.50
2019-03-20T00:25:08.442Z,10.20
2019-03-20T00:26:13.944Z,9.80
2019-03-20T00:27:19.454Z,9.80
2019-03-20T00:28:24.955Z,10.40
2019-03-20T00:29:30.458Z,9.70
2019-03-20T00:30:35.985Z,9.30
2019-03-20T00:31:41.479Z,9.90
2019-03-20T00:32:46.983Z,9.70
2019-03-20T00:33:52.488Z,9.70
2019-03-20T00:35:01.131Z,10.20
2019-03-20T00:36:03.505Z,9.80
2019-03-20T00:37:09.013Z,9.90
2019-03-20T00:38:14.519Z,9.70
2019-03-20T00:39:20.018Z,9.20
2019-03-20T00:40:25.524Z,9.10
2019-03-20T00:41:31.035Z,9.30
2019-03-20T00:42:36.534Z,9.30
2019-03-20T00:43:42.051Z,8.70
2019-03-20T00:44:47.545Z,9.10
2019-03-20T00:45:53.049Z,9.60
2019-03-20T00:46:58.559Z,9.60
2019-03-20T00:48:04.066Z,9.40
2019-03-20T00:49:09.571Z,9.20
2019-03-20T00:50:15.083Z,9.70
2019-03-20T00:51:20.585Z,9.10
2019-03-20T00:52:26.100Z,10.20
2019-03-20T00:53:31.599Z,9.50
2019-03-20T00:54:37.097Z,9.10
2019-03-20T00:55:42.605Z,9.20
2019-03-20T00:56:48.118Z,8.90
2019-03-20T00:57:53.631Z,9.10
2019-03-20T00:58:59.127Z,9.60
2019-03-20T01:00:04.650Z,9.50
2019-03-20T01:01:10.141Z,9.80
2019-03-20T01:02:15.652Z,9.40
2019-03-20T01:03:21.149Z,9.40
2019-03-20T01:04:26.649Z,9.10
2019-03-20T01:05:32.158Z,9.50
2019-03-20T01:06:37.670Z,9.00
2019-03-20T01:07:43.173Z,10.10
2019-03-20T01:08:48.684Z,9.20
2019-03-20T01:09:54.184Z,10.10
2019-03-20T01:10:59.692Z,9.80
2019-03-20T01:12:05.224Z,10.10
2019-03-20T01:13:10.704Z,9.10
2019-03-20T01:14:16.214Z,9.40
2019-03-20T01:15:21.718Z,9.00
2019-03-20T01:16:27.223Z,9.60
2019-03-20T01:17:32.723Z,9.50
2019-03-20T01:18:38.233Z,10.30
2019-03-20T01:19:43.731Z,9.70
2019-03-20T01:20:49.236Z,9.20
2019-03-20T01:21:54.748Z,9.70
2019-03-20T01:23:00.250Z,9.60
2019-03-20T01:24:05.753Z,9.20
2019-03-20T01:25:11.261Z,9.50
2019-03-20T01:26:16.774Z,9.40
2019-03-20T01:27:22.278Z,9.60
2019-03-20T01:28:27.779Z,9.50
2019-03-20T01:29:33.292Z,9.80
2019-03-20T01:30:38.796Z,10.00
2019-03-20T01:31:44.300Z,10.60
2019-03-20T01:32:49.806Z,11.20
2019-03-20T01:33:55.311Z,10.30
2019-03-20T01:35:00.815Z,9.80
2019-03-20T01:36:06.328Z,10.40
2019-03-20T01:37:11.828Z,10.20
2019-03-20T01:38:17.338Z,9.80
2019-03-20T01:39:22.838Z,9.80
2019-03-20T01:40:28.359Z,10.00
2019-03-20T01:41:38.049Z,9.80
2019-03-20T01:42:39.349Z,10.20
2019-03-20T01:43:44.857Z,9.80
2019-03-20T01:44:50.375Z,9.70
2019-03-20T01:45:55.877Z,9.40
2019-03-20T01:47:01.389Z,9.50
2019-03-20T01:48:06.888Z,10.10
2019-03-20T01:49:12.388Z,10.30
2019-03-20T01:50:17.890Z,9.80
2019-03-20T01:51:23.395Z,9.90
2019-03-20T01:52:28.910Z,10.60
2019-03-20T01:53:34.412Z,11.10
2019-03-20T01:54:39.909Z,11.20
2019-03-20T01:55:45.418Z,9.80
2019-03-20T01:56:50.944Z,9.90
2019-03-20T01:57:56.429Z,9.90
2019-03-20T01:59:01.946Z,9.60
2019-03-20T02:00:07.444Z,11.60
2019-03-20T02:01:12.946Z,12.00
2019-03-20T02:02:18.469Z,11.40
2019-03-20T02:03:23.958Z,10.00
2019-03-20T02:04:29.473Z,10.00
2019-03-20T02:05:36.495Z,10.40
2019-03-20T02:06:40.478Z,10.60
2019-03-20T02:07:45.979Z,10.30
2019-03-20T02:08:51.490Z,10.50
2019-03-20T02:09:56.989Z,11.50
2019-03-20T02:11:02.515Z,11.10
2019-03-20T02:12:08.005Z,11.60
2019-03-20T02:13:13.522Z,11.30
2019-03-20T02:14:19.027Z,10.60
2019-03-20T02:15:24.519Z,11.10
2019-03-20T02:16:30.039Z,11.00
2019-03-20T02:17:35.539Z,10.40
2019-03-20T02:18:41.035Z,11.10
2019-03-20T02:19:46.540Z,10.50
2019-03-20T02:20:52.048Z,11.40
2019-03-20T02:21:57.558Z,11.10
2019-03-20T02:23:03.057Z,10.20
2019-03-20T02:24:08.563Z,10.40
2019-03-20T02:25:14.066Z,10.50
2019-03-20T02:26:19.581Z,10.60
2019-03-20T02:27:25.080Z,10.80
2019-03-20T02:28:30.585Z,10.10
2019-03-20T02:29:36.090Z,9.90
2019-03-20T02:30:41.593Z,10.60
2019-03-20T02:31:47.117Z,10.50
2019-03-20T02:32:52.630Z,10.50
2019-03-20T02:33:58.124Z,10.50
2019-03-20T02:35:03.626Z,11.30
2019-03-20T02:36:09.127Z,10.40
2019-03-20T02:37:14.644Z,10.10
2019-03-20T02:38:20.136Z,10.40
2019-03-20T02:39:25.652Z,9.70
2019-03-20T02:40:31.146Z,10.20
2019-03-20T02:41:36.654Z,10.20
2019-03-20T02:42:42.159Z,9.80
2019-03-20T02:43:47.663Z,9.20
2019-03-20T02:44:53.167Z,9.30
2019-03-20T02:45:58.673Z,9.90
2019-03-20T02:47:04.185Z,10.40
2019-03-20T02:48:09.683Z,10.70
2019-03-20T02:49:15.185Z,10.40
2019-03-20T02:50:20.694Z,10.60
2019-03-20T02:51:26.206Z,10.70
2019-03-20T02:52:31.740Z,10.70
2019-03-20T02:53:37.218Z,10.70
2019-03-20T02:54:42.716Z,9.60
2019-03-20T02:55:48.227Z,10.30
2019-03-20T02:56:53.737Z,10.30
2019-03-20T02:57:59.230Z,10.20
2019-03-20T02:59:04.735Z,10.80
2019-03-20T03:00:10.247Z,10.50
2019-03-20T03:01:15.747Z,10.40
2019-03-20T03:02:21.260Z,10.50
2019-03-20T03:03:26.760Z,10.40
2019-03-20T03:04:32.267Z,10.30
2019-03-20T03:05:37.775Z,9.90
2019-03-20T03:06:43.282Z,10.30
2019-03-20T03:07:48.854Z,10.40
2019-03-20T03:08:54.290Z,11.60
2019-03-20T03:09:59.798Z,11.50
2019-03-20T03:11:05.300Z,11.90
2019-03-20T03:12:10.806Z,11.60
2019-03-20T03:13:16.318Z,11.90
2019-03-20T03:14:21.830Z,11.10
2019-03-20T03:15:27.329Z,9.80
2019-03-20T03:16:32.833Z,10.70
2019-03-20T03:17:38.339Z,11.10
2019-03-20T03:18:43.841Z,11.90
2019-03-20T03:19:49.347Z,11.70
2019-03-20T03:20:54.896Z,12.00
2019-03-20T03:22:00.389Z,10.80
2019-03-20T03:23:05.863Z,10.60
2019-03-20T03:24:11.368Z,10.50
2019-03-20T03:25:16.876Z,10.20
2019-03-20T03:26:22.380Z,10.80
2019-03-20T03:27:27.890Z,10.80
2019-03-20T03:28:33.388Z,11.40
2019-03-20T03:29:38.895Z,11.10
2019-03-20T03:30:44.398Z,10.60
2019-03-20T03:31:49.919Z,10.80
2019-03-20T03:32:55.412Z,11.20
2019-03-20T03:34:00.915Z,10.20
2019-03-20T03:35:06.418Z,10.00
2019-03-20T03:36:21.008Z,9.90
2019-03-20T03:37:17.433Z,10.00
2019-03-20T03:38:22.931Z,10.40
2019-03-20T03:39:28.441Z,9.80
2019-03-20T03:40:33.950Z,10.10
2019-03-20T03:41:39.459Z,9.80
2019-03-20T03:42:45.007Z,10.20
2019-03-20T03:43:50.481Z,10.00
2019-03-20T03:44:56.038Z,10.30
2019-03-20T03:46:01.470Z,10.50
2019-03-20T03:47:06.979Z,10.00
2019-03-20T03:48:12.508Z,10.30
2019-03-20T03:49:17.995Z,10.30
2019-03-20T03:50:23.499Z,11.00
2019-03-20T03:51:29.018Z,10.60
2019-03-20T03:52:34.509Z,10.80
2019-03-20T03:53:40.018Z,11.60
2019-03-20T03:54:45.516Z,11.70
2019-03-20T03:55:51.023Z,11.60
2019-03-20T03:56:56.535Z,11.50
2019-03-20T03:58:02.034Z,12.50
2019-03-20T03:59:07.537Z,12.60
2019-03-20T04:00:13.068Z,12.30
2019-03-20T04:01:18.553Z,12.20
2019-03-20T04:02:24.058Z,11.90
2019-03-20T04:03:29.582Z,11.40
2019-03-20T04:04:35.071Z,11.00
2019-03-20T04:05:40.574Z,11.60
2019-03-20T04:06:46.079Z,10.90
2019-03-20T04:07:51.583Z,11.30
2019-03-20T04:08:57.087Z,11.00
2019-03-20T04:10:02.591Z,11.30
2019-03-20T04:11:08.100Z,11.20
2019-03-20T04:12:13.632Z,10.90
2019-03-20T04:13:19.105Z,10.80
2019-03-20T04:14:24.618Z,10.80
2019-03-20T04:15:30.133Z,10.40
2019-03-20T04:16:35.647Z,11.00
2019-03-20T04:17:41.142Z,10.50
2019-03-20T04:18:46.636Z,10.20
2019-03-20T04:19:52.142Z,10.90
2019-03-20T04:20:57.649Z,11.20
2019-03-20T04:22:03.149Z,12.70
2019-03-20T04:23:08.652Z,13.30
2019-03-20T04:24:14.168Z,13.60
2019-03-20T04:25:19.681Z,13.50
2019-03-20T04:26:25.171Z,11.60
2019-03-20T04:27:30.680Z,13.40
2019-03-20T04:28:36.196Z,13.20
2019-03-20T04:29:41.715Z,12.80
2019-03-20T04:30:47.194Z,11.30
2019-03-20T04:31:52.711Z,11.90
2019-03-20T04:32:58.210Z,11.90
2019-03-20T04:34:03.716Z,12.00
2019-03-20T04:35:09.231Z,12.60
2019-03-20T04:36:14.731Z,13.40
2019-03-20T04:37:20.237Z,12.00
2019-03-20T04:38:25.742Z,12.50
2019-03-20T04:39:31.240Z,11.20
2019-03-20T04:40:36.744Z,11.20
2019-03-20T04:41:42.250Z,11.40
2019-03-20T04:42:47.762Z,11.00
2019-03-20T04:43:53.259Z,11.80
2019-03-20T04:44:58.765Z,10.70
2019-03-20T04:46:04.275Z,11.90
2019-03-20T04:47:09.778Z,11.00
2019-03-20T04:48:15.284Z,11.20
2019-03-20T04:49:20.791Z,11.90
2019-03-20T04:50:26.296Z,11.10
2019-03-20T04:51:31.797Z,11.10
2019-03-20T04:52:37.304Z,10.80
2019-03-20T04:53:42.820Z,10.90
2019-03-20T04:54:48.328Z,10.50
2019-03-20T04:55:53.832Z,11.00
2019-03-20T04:56:59.330Z,11.10
2019-03-20T04:58:04.839Z,10.60
2019-03-20T04:59:10.339Z,10.50
2019-03-20T05:00:15.863Z,12.00
2019-03-20T05:01:21.348Z,13.20
2019-03-20T05:02:26.850Z,12.80
2019-03-20T05:03:32.359Z,11.10
2019-03-20T05:04:37.867Z,11.80
2019-03-20T05:05:43.376Z,11.10
2019-03-20T05:06:58.307Z,11.90
2019-03-20T05:07:54.384Z,11.00
2019-03-20T05:08:59.885Z,11.20
2019-03-20T05:10:05.395Z,11.10
2019-03-20T05:11:10.908Z,11.40
2019-03-20T05:12:16.448Z,11.70
2019-03-20T05:13:21.905Z,12.50
2019-03-20T05:14:27.416Z,12.80
2019-03-20T05:15:32.919Z,13.90
2019-03-20T05:16:38.433Z,14.20
2019-03-20T05:17:43.934Z,13.50
2019-03-20T05:18:49.441Z,13.90
2019-03-20T05:19:54.937Z,13.40
2019-03-20T05:21:00.451Z,13.60
2019-03-20T05:22:05.950Z,13.50
2019-03-20T05:23:11.461Z,13.70
2019-03-20T05:24:16.962Z,14.00
2019-03-20T05:25:22.473Z,13.60
2019-03-20T05:26:27.967Z,13.80
2019-03-20T05:27:33.482Z,12.90
2019-03-20T05:28:38.993Z,13.60
2019-03-20T05:29:44.489Z,13.10
2019-03-20T05:30:50.004Z,12.90
2019-03-20T05:31:55.498Z,12.60
2019-03-20T05:33:01.006Z,12.30
2019-03-20T05:34:06.517Z,12.60
2019-03-20T05:35:12.019Z,12.40
2019-03-20T05:36:17.533Z,12.60
2019-03-20T05:37:23.038Z,12.70
2019-03-20T05:38:28.533Z,12.00
2019-03-20T05:39:34.044Z,12.70
2019-03-20T05:40:39.548Z,12.20
2019-03-20T05:41:45.050Z,12.40
2019-03-20T05:42:50.551Z,12.60
2019-03-20T05:43:56.058Z,12.10
2019-03-20T05:45:01.567Z,12.00
2019-03-20T05:46:07.072Z,12.40
2019-03-20T05:47:12.584Z,11.90
2019-03-20T05:48:18.084Z,12.00
2019-03-20T05:49:23.587Z,11.00
2019-03-20T05:50:29.093Z,10.60
2019-03-20T05:51:34.601Z,11.60
2019-03-20T05:52:40.108Z,11.30
2019-03-20T05:53:45.615Z,10.70
2019-03-20T05:54:51.116Z,11.70
2019-03-20T05:55:56.619Z,11.80
2019-03-20T05:57:02.132Z,11.40
2019-03-20T05:58:07.628Z,11.20
2019-03-20T05:59:13.133Z,11.50
2019-03-20T06:00:18.644Z,11.00
2019-03-20T06:01:24.150Z,11.70
2019-03-20T06:02:29.653Z,11.00
2019-03-20T06:03:35.156Z,11.10
2019-03-20T06:04:40.662Z,11.60
2019-03-20T06:05:46.179Z,11.70
2019-03-20T06:06:51.686Z,11.20
2019-03-20T06:07:57.178Z,11.40
2019-03-20T06:09:02.687Z,11.70
2019-03-20T06:10:08.203Z,10.70
2019-03-20T06:11:13.696Z,11.40
2019-03-20T06:12:19.200Z,11.30
2019-03-20T06:13:24.744Z,11.80
2019-03-20T06:14:30.217Z,11.60
2019-03-20T06:15:35.732Z,12.00
2019-03-20T06:16:41.231Z,13.00
2019-03-20T06:17:47.074Z,12.10
2019-03-20T06:18:52.243Z,12.00
2019-03-20T06:19:57.740Z,12.00
2019-03-20T06:21:03.248Z,10.90
2019-03-20T06:22:08.752Z,12.00
2019-03-20T06:23:14.259Z,11.60
2019-03-20T06:24:19.768Z,11.90
2019-03-20T06:25:25.275Z,12.10
2019-03-20T06:26:30.783Z,11.60
2019-03-20T06:27:36.290Z,11.60
2019-03-20T06:28:41.794Z,11.00
2019-03-20T06:29:47.296Z,10.90
2019-03-20T06:30:52.800Z,11.30
2019-03-20T06:31:58.309Z,10.90
2019-03-20T06:33:03.809Z,11.00
2019-03-20T06:34:09.321Z,11.00
2019-03-20T06:35:14.828Z,10.80
2019-03-20T06:36:20.330Z,11.00
2019-03-20T06:37:32.537Z,10.80
2019-03-20T06:38:31.343Z,9.80
2019-03-20T06:39:36.849Z,9.60
2019-03-20T06:40:42.367Z,9.90
2019-03-20T06:41:47.866Z,9.40
2019-03-20T06:42:55.281Z,9.40
2019-03-20T06:43:58.889Z,8.70
2019-03-20T06:45:04.385Z,9.30
2019-03-20T06:46:09.883Z,8.20
2019-03-20T06:47:15.398Z,8.40
2019-03-20T06:48:20.936Z,8.80
2019-03-20T06:49:26.405Z,8.80
2019-03-20T06:50:31.904Z,8.30
2019-03-20T06:51:37.421Z,8.50
2019-03-20T06:52:42.964Z,8.70
2019-03-20T06:53:48.425Z,8.00
2019-03-20T06:54:53.934Z,8.60
2019-03-20T06:55:59.443Z,8.60
2019-03-20T06:57:04.952Z,8.90
2019-03-20T06:58:10.455Z,8.30
2019-03-20T06:59:15.973Z,8.50
2019-03-20T07:00:21.467Z,8.10
2019-03-20T07:01:26.976Z,7.80
2019-03-20T07:02:32.477Z,8.20
2019-03-20T07:03:37.985Z,8.20
2019-03-20T07:04:43.494Z,8.30
2019-03-20T07:05:49.008Z,8.90
2019-03-20T07:06:54.514Z,8.60
2019-03-20T07:08:00.012Z,8.00
2019-03-20T07:09:05.521Z,7.80
2019-03-20T07:10:11.025Z,7.80
2019-03-20T07:11:16.534Z,7.50
2019-03-20T07:12:22.060Z,7.20
2019-03-20T07:13:27.546Z,7.10
2019-03-20T07:14:33.054Z,7.10
2019-03-20T07:15:38.563Z,6.90
2019-03-20T07:16:44.135Z,6.50
2019-03-20T07:17:49.577Z,6.80
2019-03-20T07:18:55.081Z,6.40
2019-03-20T07:20:00.589Z,6.80
2019-03-20T07:21:06.096Z,6.70
2019-03-20T07:22:12.386Z,6.40
2019-03-20T07:23:17.106Z,7.30
2019-03-20T07:24:22.619Z,7.10
2019-03-20T07:25:28.127Z,6.30
2019-03-20T07:26:33.646Z,6.40
2019-03-20T07:27:39.154Z,6.90
2019-03-20T07:28:44.656Z,6.10
2019-03-20T07:29:50.158Z,6.40
2019-03-20T07:30:55.662Z,6.40
2019-03-20T07:32:01.170Z,6.40
2019-03-20T07:33:06.682Z,6.40
2019-03-20T07:34:12.190Z,6.50
2019-03-20T07:35:17.695Z,6.80
2019-03-20T07:36:23.199Z,6.50
2019-03-20T07:37:28.709Z,6.60
2019-03-20T07:38:34.212Z,6.70
2019-03-20T07:39:39.720Z,6.10
2019-03-20T07:40:45.228Z,6.70
2019-03-20T07:41:50.747Z,6.20
2019-03-20T07:42:56.252Z,6.50
2019-03-20T07:44:01.757Z,6.90
2019-03-20T07:45:07.267Z,6.80
2019-03-20T07:46:12.780Z,6.50
2019-03-20T07:47:18.281Z,6.70
2019-03-20T07:48:23.780Z,6.30
2019-03-20T07:49:29.297Z,6.20
2019-03-20T07:50:34.803Z,6.70
2019-03-20T07:51:40.309Z,5.90
2019-03-20T07:52:45.822Z,6.40
2019-03-20T07:53:51.309Z,6.20
2019-03-20T07:54:56.824Z,6.30
2019-03-20T07:56:02.345Z,6.10
2019-03-20T07:57:07.854Z,6.30
2019-03-20T07:58:13.376Z,6.20
2019-03-20T07:59:18.869Z,6.20
2019-03-20T08:00:24.390Z,5.90
2019-03-20T08:01:29.875Z,6.10
2019-03-20T08:02:35.396Z,5.70
2019-03-20T08:03:40.900Z,5.90
2019-03-20T08:04:46.407Z,5.80
2019-03-20T08:05:51.915Z,6.00
2019-03-20T08:06:57.416Z,5.70
2019-03-20T08:08:07.291Z,6.00
2019-03-20T08:09:08.439Z,5.40
2019-03-20T08:10:13.972Z,5.80
2019-03-20T08:11:19.447Z,5.60
2019-03-20T08:12:24.975Z,6.20
2019-03-20T08:13:30.470Z,5.80
2019-03-20T08:14:35.976Z,5.20
2019-03-20T08:15:41.484Z,5.90
2019-03-20T08:16:47.008Z,6.10
2019-03-20T08:17:52.501Z,5.90
2019-03-20T08:18:58.014Z,5.40
2019-03-20T08:20:03.525Z,5.10
2019-03-20T08:21:09.030Z,5.10
2019-03-20T08:22:14.548Z,5.60
2019-03-20T08:23:20.054Z,5.90
2019-03-20T08:24:25.556Z,4.80
2019-03-20T08:25:31.075Z,5.50
2019-03-20T08:26:36.577Z,5.30
2019-03-20T08:27:42.094Z,5.20
2019-03-20T08:28:47.589Z,5.30
2019-03-20T08:29:53.106Z,5.50
2019-03-20T08:30:58.617Z,5.20
2019-03-20T08:32:04.127Z,5.60
2019-03-20T08:33:09.628Z,5.60
2019-03-20T08:34:15.136Z,5.30
2019-03-20T08:35:20.640Z,5.70
2019-03-20T08:36:26.151Z,5.40
2019-03-20T08:37:31.673Z,5.60
2019-03-20T08:38:37.177Z,5.50
2019-03-20T08:39:42.679Z,5.50
2019-03-20T08:40:48.247Z,5.60
2019-03-20T08:41:53.702Z,5.50
2019-03-20T08:42:59.207Z,5.30
2019-03-20T08:44:04.729Z,5.50
2019-03-20T08:45:10.230Z,5.70
2019-03-20T08:46:15.736Z,5.50
2019-03-20T08:47:21.254Z,5.80
2019-03-20T08:48:26.758Z,5.50
2019-03-20T08:49:32.266Z,5.80
2019-03-20T08:50:37.777Z,5.90
2019-03-20T08:51:43.296Z,5.90
2019-03-20T08:52:48.798Z,5.80
2019-03-20T08:53:56.258Z,5.10
2019-03-20T08:54:59.815Z,5.80
2019-03-20T08:56:05.328Z,5.20
2019-03-20T08:57:10.829Z,5.90
2019-03-20T08:58:16.343Z,5.90
2019-03-20T08:59:21.853Z,5.80
2019-03-20T09:00:27.358Z,5.50
2019-03-20T09:01:32.873Z,5.40
2019-03-20T09:02:38.381Z,5.70
2019-03-20T09:03:43.885Z,5.60
2019-03-20T09:04:49.420Z,5.90
2019-03-20T09:05:54.906Z,5.80
2019-03-20T09:07:00.415Z,5.90
2019-03-20T09:08:05.935Z,5.90
2019-03-20T09:09:11.438Z,5.60
2019-03-20T09:10:16.951Z,5.90
2019-03-20T09:11:22.455Z,5.90
2019-03-20T09:12:27.963Z,6.00
2019-03-20T09:13:33.472Z,6.30
2019-03-20T09:14:39.001Z,5.90
2019-03-20T09:15:44.493Z,5.90
2019-03-20T09:16:50.010Z,5.80
2019-03-20T09:17:55.525Z,5.80
2019-03-20T09:19:01.022Z,5.70
2019-03-20T09:20:06.548Z,6.10
2019-03-20T09:21:12.043Z,5.90
2019-03-20T09:22:17.556Z,5.70
2019-03-20T09:23:23.060Z,6.10
2019-03-20T09:24:28.574Z,6.00
2019-03-20T09:25:34.093Z,6.00
2019-03-20T09:26:39.591Z,6.00
2019-03-20T09:27:45.110Z,5.90
2019-03-20T09:28:50.610Z,5.40
2019-03-20T09:29:56.123Z,6.10
2019-03-20T09:31:01.633Z,6.00
2019-03-20T09:32:07.154Z,6.10
2019-03-20T09:33:12.646Z,6.10
2019-03-20T09:34:18.170Z,5.70
2019-03-20T09:35:23.674Z,6.20
2019-03-20T09:36:29.186Z,6.00
2019-03-20T09:37:34.718Z,6.20
2019-03-20T09:38:43.781Z,6.40
2019-03-20T09:39:45.719Z,6.00
2019-03-20T09:40:51.225Z,6.40
2019-03-20T09:41:56.735Z,5.90
2019-03-20T09:43:02.240Z,6.10
2019-03-20T09:44:07.757Z,6.70
2019-03-20T09:45:13.305Z,6.70
2019-03-20T09:46:18.778Z,6.30
2019-03-20T09:47:24.286Z,6.90
2019-03-20T09:48:29.795Z,6.90
2019-03-20T09:49:35.304Z,6.60
2019-03-20T09:50:40.812Z,6.80
2019-03-20T09:51:46.328Z,6.70
2019-03-20T09:52:51.844Z,6.40
2019-03-20T09:53:57.342Z,6.80
2019-03-20T09:55:02.875Z,7.00
2019-03-20T09:56:08.371Z,6.70
2019-03-20T09:57:13.905Z,6.60
2019-03-20T09:58:19.387Z,7.10
2019-03-20T09:59:24.916Z,7.10
2019-03-20T10:00:30.416Z,7.40
2019-03-20T10:01:35.924Z,7.20
2019-03-20T10:02:41.428Z,7.00
2019-03-20T10:03:46.946Z,7.10
2019-03-20T10:04:52.454Z,7.60
2019-03-20T10:05:57.975Z,7.30
2019-03-20T10:07:03.488Z,6.60
2019-03-20T10:08:09.009Z,7.40
2019-03-20T10:09:14.503Z,7.40
2019-03-20T10:10:20.009Z,7.00
2019-03-20T10:11:25.519Z,6.90
2019-03-20T10:12:31.028Z,6.80
2019-03-20T10:13:36.539Z,7.20
2019-03-20T10:14:42.045Z,7.30
2019-03-20T10:15:47.566Z,7.70
2019-03-20T10:16:53.081Z,7.60
2019-03-20T10:17:58.583Z,7.60
2019-03-20T10:19:04.092Z,7.70
2019-03-20T10:20:09.605Z,7.40
2019-03-20T10:21:15.121Z,8.00
2019-03-20T10:22:20.629Z,7.60
2019-03-20T10:23:26.143Z,8.40
2019-03-20T10:24:31.649Z,7.50
2019-03-20T10:25:44.423Z,7.50
2019-03-20T10:26:42.679Z,7.90
2019-03-20T10:27:48.194Z,7.40
2019-03-20T10:28:53.698Z,7.40
2019-03-20T10:29:59.206Z,7.80
2019-03-20T10:31:04.727Z,7.70
2019-03-20T10:32:10.225Z,7.90
2019-03-20T10:33:16.708Z,8.30
2019-03-20T10:34:21.262Z,8.10
2019-03-20T10:35:26.769Z,8.10
2019-03-20T10:36:32.278Z,7.40
2019-03-20T10:37:37.787Z,7.70
2019-03-20T10:38:43.324Z,7.20
2019-03-20T10:39:48.810Z,7.70
2019-03-20T10:40:54.321Z,7.60
2019-03-20T10:41:59.844Z,7.70
2019-03-20T10:43:05.347Z,7.60
2019-03-20T10:44:10.860Z,7.40
2019-03-20T10:45:16.370Z,6.90
2019-03-20T10:46:21.894Z,6.80
2019-03-20T10:47:27.396Z,6.90
2019-03-20T10:48:32.903Z,7.10
2019-03-20T10:49:38.417Z,6.60
2019-03-20T10:50:43.929Z,6.60
2019-03-20T10:51:49.441Z,6.30
2019-03-20T10:52:54.954Z,5.70
2019-03-20T10:54:00.479Z,6.10
2019-03-20T10:55:05.978Z,6.20
2019-03-20T10:56:11.489Z,3.80
2019-03-20T10:57:17.006Z,3.80
2019-03-20T10:58:22.525Z,3.30
2019-03-20T10:59:28.021Z,2.60
2019-03-20T11:00:33.535Z,2.50
2019-03-20T11:01:42.732Z,2.80
2019-03-20T11:02:44.559Z,3.20
2019-03-20T11:03:50.083Z,3.10
2019-03-20T11:04:55.591Z,2.90
2019-03-20T11:06:01.114Z,2.50
2019-03-20T11:07:06.608Z,2.50
2019-03-20T11:08:13.164Z,2.20
2019-03-20T11:09:18.775Z,2.40
2019-03-20T11:10:23.152Z,2.10
2019-03-20T11:11:28.757Z,2.30
2019-03-20T11:12:34.187Z,2.20
2019-03-20T11:13:39.683Z,2.40
2019-03-20T11:14:45.199Z,2.30
2019-03-20T11:15:50.725Z,2.60
2019-03-20T11:16:56.227Z,2.40
2019-03-20T11:18:01.737Z,2.60
2019-03-20T11:19:07.241Z,2.70
2019-03-20T11:20:12.774Z,2.50
2019-03-20T11:21:18.274Z,2.70
2019-03-20T11:22:23.792Z,2.70
2019-03-20T11:23:29.304Z,3.10
2019-03-20T11:24:35.560Z,2.80
2019-03-20T11:25:40.320Z,2.60
2019-03-20T11:26:45.853Z,2.50
2019-03-20T11:27:51.345Z,2.70
2019-03-20T11:28:56.863Z,2.60
2019-03-20T11:30:02.367Z,2.70
2019-03-20T11:31:07.882Z,2.90
2019-03-20T11:32:14.467Z,2.40
2019-03-20T11:33:18.906Z,2.50
2019-03-20T11:34:24.419Z,2.40
2019-03-20T11:35:29.935Z,2.20
2019-03-20T11:36:35.453Z,2.50
2019-03-20T11:37:40.956Z,2.40
2019-03-20T11:38:46.469Z,2.50
2019-03-20T11:39:52.818Z,2.10
2019-03-20T11:40:57.498Z,2.40
2019-03-20T11:42:03.014Z,2.40
2019-03-20T11:43:08.518Z,2.40
2019-03-20T11:44:14.030Z,2.20
2019-03-20T11:45:19.546Z,2.00
2019-03-20T11:46:25.056Z,2.00
2019-03-20T11:47:30.565Z,2.00
2019-03-20T11:48:36.093Z,1.90
2019-03-20T11:49:41.591Z,1.70
2019-03-20T11:50:47.103Z,1.60
2019-03-20T11:51:52.623Z,1.80
2019-03-20T11:52:58.140Z,1.90
2019-03-20T11:54:03.645Z,2.20
2019-03-20T11:55:09.169Z,2.20
2019-03-20T11:56:14.665Z,1.70
2019-03-20T11:57:21.676Z,2.10
2019-03-20T11:58:25.690Z,1.90
2019-03-20T11:59:31.213Z,2.10
2019-03-20T12:00:36.745Z,2.10
2019-03-20T12:01:42.236Z,2.00
2019-03-20T12:02:47.740Z,1.80
2019-03-20T12:03:53.251Z,1.70
2019-03-20T12:04:58.760Z,1.90
2019-03-20T12:06:04.299Z,1.90
2019-03-20T12:07:09.796Z,1.80
2019-03-20T12:08:15.314Z,1.70
2019-03-20T12:09:20.825Z,1.40
2019-03-20T12:10:26.327Z,1.70
2019-03-20T12:11:31.841Z,1.60
2019-03-20T12:12:37.351Z,1.60
2019-03-20T12:13:42.862Z,1.70
2019-03-20T12:14:48.372Z,1.70
2019-03-20T12:15:53.891Z,1.70
2019-03-20T12:16:59.420Z,2.00
2019-03-20T12:18:04.923Z,1.80
2019-03-20T12:19:10.432Z,1.70
2019-03-20T12:20:15.940Z,1.60
2019-03-20T12:21:21.452Z,1.80
2019-03-20T12:22:26.972Z,2.00
2019-03-20T12:23:33.754Z,1.90
2019-03-20T12:24:37.989Z,1.70
2019-03-20T12:25:43.505Z,1.90
2019-03-20T12:26:49.027Z,1.90
2019-03-20T12:27:54.538Z,2.00
2019-03-20T12:29:00.055Z,1.90
2019-03-20T12:30:05.571Z,2.10
2019-03-20T12:31:11.067Z,2.10
2019-03-20T12:32:16.584Z,1.90
2019-03-20T12:33:22.106Z,2.20
2019-03-20T12:34:27.615Z,2.10
2019-03-20T12:35:33.121Z,2.00
2019-03-20T12:36:38.640Z,1.80
2019-03-20T12:37:44.143Z,2.00
2019-03-20T12:38:49.651Z,2.00
2019-03-20T12:39:55.170Z,1.80
2019-03-20T12:41:00.689Z,1.90
2019-03-20T12:42:06.203Z,2.10
2019-03-20T12:43:11.701Z,2.20
2019-03-20T12:44:17.215Z,2.10
2019-03-20T12:45:22.742Z,1.90
2019-03-20T12:46:40.852Z,2.20
2019-03-20T12:47:33.755Z,2.10
2019-03-20T12:48:39.270Z,1.90
2019-03-20T12:49:44.783Z,1.80
2019-03-20T12:50:50.292Z,1.60
2019-03-20T12:51:55.807Z,1.60
2019-03-20T12:53:01.930Z,1.70
2019-03-20T12:54:06.833Z,1.90
2019-03-20T12:55:12.346Z,1.90
2019-03-20T12:56:17.848Z,1.80
2019-03-20T12:57:23.392Z,2.10
2019-03-20T12:58:28.883Z,1.70
2019-03-20T12:59:34.388Z,1.80
2019-03-20T13:00:39.904Z,1.80
2019-03-20T13:01:45.436Z,1.80
2019-03-20T13:02:50.954Z,2.00
2019-03-20T13:03:56.441Z,2.20
2019-03-20T13:05:01.958Z,2.20
2019-03-20T13:06:07.475Z,2.00
2019-03-20T13:07:12.991Z,2.00
2019-03-20T13:08:18.489Z,2.30
2019-03-20T13:09:24.008Z,2.00
2019-03-20T13:10:29.519Z,2.10
2019-03-20T13:11:35.050Z,1.90
2019-03-20T13:12:40.542Z,1.90
2019-03-20T13:13:46.052Z,2.10
2019-03-20T13:14:51.571Z,1.90
2019-03-20T13:15:57.087Z,1.90
2019-03-20T13:17:02.598Z,1.90
2019-03-20T13:18:08.119Z,1.90
2019-03-20T13:19:13.623Z,2.10
2019-03-20T13:20:19.129Z,1.80
2019-03-20T13:21:24.639Z,2.10
2019-03-20T13:22:30.155Z,1.80
2019-03-20T13:23:35.667Z,1.60
2019-03-20T13:24:41.187Z,1.60
2019-03-20T13:25:46.719Z,1.50
2019-03-20T13:26:52.203Z,1.80
2019-03-20T13:27:57.713Z,1.70
2019-03-20T13:29:03.233Z,1.80
2019-03-20T13:30:08.747Z,1.70
2019-03-20T13:31:14.276Z,1.80
2019-03-20T13:32:19.783Z,2.10
2019-03-20T13:33:26.314Z,2.20
2019-03-20T13:34:30.790Z,2.00
2019-03-20T13:35:36.324Z,2.20
2019-03-20T13:36:41.820Z,1.90
2019-03-20T13:37:47.332Z,2.00
2019-03-20T13:38:52.837Z,2.00
2019-03-20T13:39:58.353Z,2.00
2019-03-20T13:41:03.862Z,2.00
2019-03-20T13:42:09.378Z,2.10
2019-03-20T13:43:14.907Z,2.10
2019-03-20T13:44:20.413Z,2.20
2019-03-20T13:45:25.923Z,2.40
2019-03-20T13:46:31.433Z,2.50
2019-03-20T13:47:36.944Z,2.30
2019-03-20T13:48:42.463Z,2.20
2019-03-20T13:49:47.970Z,2.20
2019-03-20T13:50:53.487Z,2.10
2019-03-20T13:51:58.994Z,2.40
2019-03-20T13:53:04.503Z,2.40
2019-03-20T13:54:10.037Z,2.50
2019-03-20T13:55:15.533Z,2.20
2019-03-20T13:56:21.043Z,2.40
2019-03-20T13:57:26.577Z,2.30
2019-03-20T13:58:32.071Z,2.40
2019-03-20T13:59:37.577Z,2.50
2019-03-20T14:00:43.114Z,2.40
2019-03-20T14:01:48.606Z,2.40
2019-03-20T14:02:54.126Z,2.60
2019-03-20T14:03:59.626Z,2.50
2019-03-20T14:05:05.142Z,2.10
2019-03-20T14:06:10.665Z,2.60
2019-03-20T14:07:16.183Z,2.60
2019-03-20T14:08:21.676Z,2.80
2019-03-20T14:09:27.189Z,2.50
2019-03-20T14:10:32.699Z,2.60
2019-03-20T14:11:38.216Z,2.80
2019-03-20T14:12:43.754Z,2.90
2019-03-20T14:13:49.238Z,2.90
2019-03-20T14:14:54.757Z,2.90
2019-03-20T14:16:00.270Z,2.70
2019-03-20T14:17:05.767Z,2.80
2019-03-20T14:18:11.314Z,2.80
2019-03-20T14:19:16.797Z,3.00
2019-03-20T14:20:22.313Z,3.10
2019-03-20T14:21:27.847Z,2.90